Time;durP1;ratioP1;P1;durP2;ratioP2;P2;SDS_P1;SDS_P2;PMS_P1;PMS_P2;Temp;Humidity;BMP_temperature;BMP_pressure;BME280_temperature;BME280_humidity;BME280_pressure;Samples;Min_cycle;Max_cycle;Signal;HPM_P1;HPM_P2
2023/07/25 00:01:58;;;;;;;56.77;2.60;;;;;;;;;;5090664;28;20466;-70
2023/07/25 00:04:25;;;;;;;56.80;2.40;;;;;;;;;;5091441;28;20472;-69
2023/07/25 00:06:52;;;;;;;57.00;2.40;;;;;;;;;;5091064;28;20482;-69
2023/07/25 00:09:19;;;;;;;56.70;2.30;;;;;;;;;;5091146;28;20450;-70
2023/07/25 00:11:46;;;;;;;56.77;2.30;;;;;;;;;;5090741;28;20466;-70
2023/07/25 00:14:15;;;;;;;56.77;2.40;;;;;;;;;;5091476;28;20452;-69
2023/07/25 00:16:42;;;;;;;56.90;2.50;;;;;;;;;;5090795;28;20450;-69
2023/07/25 00:19:09;;;;;;;56.87;2.50;;;;;;;;;;5091580;28;20960;-69
2023/07/25 00:21:36;;;;;;;56.83;2.50;;;;;;;;;;5094623;28;20449;-69
2023/07/25 00:24:04;;;;;;;56.90;2.40;;;;;;;;;;5094726;28;20484;-69
2023/07/25 00:26:31;;;;;;;56.67;2.50;;;;;;;;;;5094558;28;20454;-69
2023/07/25 00:28:58;;;;;;;56.57;2.30;;;;;;;;;;5094497;28;20450;-69
2023/07/25 00:31:26;;;;;;;56.77;2.30;;;;;;;;;;5094183;28;20454;-70
2023/07/25 00:33:53;;;;;;;56.83;2.30;;;;;;;;;;5094491;28;20533;-69
2023/07/25 00:36:20;;;;;;;58.33;2.90;;;;;;;;;;5094551;28;20446;-70
2023/07/25 00:38:48;;;;;;;56.77;2.70;;;;;;;;;;5094609;28;20439;-70
2023/07/25 00:41:15;;;;;;;56.90;2.60;;;;;;;;;;5094128;28;20950;-69
2023/07/25 00:43:42;;;;;;;56.47;2.30;;;;;;;;;;5094142;28;20474;-68
2023/07/25 00:46:09;;;;;;;56.80;2.53;;;;;;;;;;5094200;28;20450;-69
2023/07/25 00:48:37;;;;;;;56.57;2.47;;;;;;;;;;5094377;28;20529;-68
2023/07/25 00:51:05;;;;;;;57.17;2.47;;;;;;;;;;5094063;28;20557;-70
2023/07/25 00:53:32;;;;;;;56.70;2.40;;;;;;;;;;5094161;28;20993;-70
2023/07/25 00:56:01;;;;;;;56.90;2.60;;;;;;;;;;5093874;28;20496;-69
2023/07/25 00:58:28;;;;;;;56.70;2.50;;;;;;;;;;5094353;28;20446;-70
2023/07/25 01:01:02;;;;;;;56.80;2.83;;;;;;;;;;5094011;28;20447;-70
2023/07/25 01:03:29;;;;;;;56.80;2.70;;;;;;;;;;5094091;28;20472;-69
2023/07/25 01:05:58;;;;;;;56.80;2.43;;;;;;;;;;5093975;28;20446;-70
2023/07/25 01:08:25;;;;;;;56.77;2.60;;;;;;;;;;5079276;28;20495;-69
2023/07/25 01:10:52;;;;;;;56.53;2.40;;;;;;;;;;5082802;28;20803;-70
2023/07/25 01:13:19;;;;;;;56.70;2.40;;;;;;;;;;5085481;28;20553;-69
2023/07/25 01:15:46;;;;;;;56.70;2.30;;;;;;;;;;5093632;28;20468;-70
2023/07/25 01:18:14;;;;;;;57.83;3.17;;;;;;;;;;5093685;28;20956;-69
2023/07/25 01:20:41;;;;;;;56.70;2.40;;;;;;;;;;5093503;28;20453;-70
2023/07/25 01:23:11;;;;;;;56.43;2.30;;;;;;;;;;5093524;28;21087;-70
2023/07/25 01:25:40;;;;;;;56.60;2.40;;;;;;;;;;5093755;28;20830;-70
2023/07/25 01:28:07;;;;;;;56.77;2.43;;;;;;;;;;5093709;28;20490;-70
2023/07/25 01:30:34;;;;;;;56.77;2.30;;;;;;;;;;5092407;28;20818;-69
2023/07/25 01:33:01;;;;;;;56.53;2.60;;;;;;;;;;5093318;28;20505;-70
2023/07/25 01:35:28;;;;;;;56.67;2.40;;;;;;;;;;5093377;28;20965;-70
2023/07/25 01:37:55;;;;;;;56.63;2.37;;;;;;;;;;5091600;28;20449;-69
2023/07/25 01:40:22;;;;;;;56.70;2.60;;;;;;;;;;5093343;28;20447;-69
2023/07/25 01:42:51;;;;;;;56.67;2.40;;;;;;;;;;5093241;28;20480;-70
2023/07/25 01:45:18;;;;;;;56.77;2.40;;;;;;;;;;5093213;28;20453;-68
2023/07/25 01:47:45;;;;;;;56.47;2.30;;;;;;;;;;5092923;28;20484;-70
2023/07/25 01:50:12;;;;;;;56.80;2.67;;;;;;;;;;5092870;28;20942;-68
2023/07/25 01:52:39;;;;;;;56.63;2.40;;;;;;;;;;5093120;28;20471;-70
2023/07/25 01:55:07;;;;;;;56.90;2.60;;;;;;;;;;5093005;28;20470;-68
2023/07/25 01:57:34;;;;;;;57.20;3.23;;;;;;;;;;5092988;28;20435;-70
2023/07/25 02:00:02;;;;;;;56.90;2.90;;;;;;;;;;5092768;28;20454;-69
2023/07/25 02:02:29;;;;;;;56.77;2.50;;;;;;;;;;5092975;28;20498;-70
2023/07/25 02:04:56;;;;;;;56.80;2.97;;;;;;;;;;5092511;28;20453;-68
2023/07/25 02:07:23;;;;;;;56.80;2.57;;;;;;;;;;5092686;28;20490;-70
2023/07/25 02:09:50;;;;;;;56.90;2.70;;;;;;;;;;5092931;28;20472;-69
2023/07/25 02:12:18;;;;;;;56.73;2.50;;;;;;;;;;5092259;28;20463;-69
2023/07/25 02:14:45;;;;;;;56.70;2.60;;;;;;;;;;5092575;28;20455;-69
2023/07/25 02:17:13;;;;;;;56.77;2.40;;;;;;;;;;5092778;28;20450;-70
2023/07/25 02:19:40;;;;;;;56.63;2.50;;;;;;;;;;5092405;28;20456;-70
2023/07/25 02:22:07;;;;;;;56.77;2.43;;;;;;;;;;5092314;28;20489;-70
2023/07/25 02:24:34;;;;;;;56.67;2.43;;;;;;;;;;5092553;28;20451;-70
2023/07/25 02:27:02;;;;;;;56.87;2.40;;;;;;;;;;5092379;28;20462;-69
2023/07/25 02:29:29;;;;;;;57.17;2.87;;;;;;;;;;5092703;28;20446;-70
2023/07/25 02:31:56;;;;;;;56.77;2.50;;;;;;;;;;5092035;28;20473;-69
2023/07/25 02:34:24;;;;;;;57.10;2.80;;;;;;;;;;5092504;28;20450;-70
2023/07/25 02:36:51;;;;;;;56.80;2.80;;;;;;;;;;5092253;28;20454;-69
2023/07/25 02:39:18;;;;;;;56.70;2.70;;;;;;;;;;5092419;28;20445;-70
2023/07/25 02:41:45;;;;;;;56.73;2.40;;;;;;;;;;5091580;28;20466;-68
2023/07/25 02:44:13;;;;;;;56.73;2.80;;;;;;;;;;5092093;28;20447;-69
2023/07/25 02:46:40;;;;;;;57.77;2.50;;;;;;;;;;5092224;28;20446;-69
2023/07/25 02:49:07;;;;;;;57.00;3.07;;;;;;;;;;5092166;28;20486;-69
2023/07/25 02:51:35;;;;;;;56.70;2.30;;;;;;;;;;5092081;28;20446;-69
2023/07/25 02:54:02;;;;;;;58.07;3.83;;;;;;;;;;5091836;28;20466;-69
2023/07/25 02:56:29;;;;;;;56.73;2.40;;;;;;;;;;5091915;28;20442;-69
2023/07/25 02:58:56;;;;;;;56.87;2.47;;;;;;;;;;5092171;28;20454;-70
2023/07/25 03:01:24;;;;;;;56.83;2.50;;;;;;;;;;5091630;28;20446;-71
2023/07/25 03:03:51;;;;;;;56.57;2.90;;;;;;;;;;5091841;28;20515;-69
2023/07/25 03:06:18;;;;;;;56.97;2.60;;;;;;;;;;5091727;28;20950;-69
2023/07/25 03:08:46;;;;;;;56.80;3.23;;;;;;;;;;5071335;28;20488;-69
2023/07/25 03:11:14;;;;;;;57.07;2.80;;;;;;;;;;5080882;28;20512;-69
2023/07/25 03:13:41;;;;;;;56.60;2.40;;;;;;;;;;5079866;28;20463;-69
2023/07/25 03:16:08;;;;;;;56.70;2.30;;;;;;;;;;5051640;28;20444;-69
2023/07/25 03:18:35;;;;;;;56.27;2.20;;;;;;;;;;5051265;28;20944;-69
2023/07/25 03:21:02;;;;;;;56.37;2.50;;;;;;;;;;5051097;28;20448;-69
2023/07/25 03:23:29;;;;;;;56.57;2.33;;;;;;;;;;5051334;28;20465;-69
2023/07/25 03:25:58;;;;;;;57.20;3.10;;;;;;;;;;5051225;28;20448;-69
2023/07/25 03:28:25;;;;;;;56.80;3.10;;;;;;;;;;5051293;28;20495;-69
2023/07/25 03:30:52;;;;;;;56.77;2.47;;;;;;;;;;5051098;28;20949;-69
2023/07/25 03:33:19;;;;;;;57.40;2.50;;;;;;;;;;5051190;28;20468;-69
2023/07/25 03:35:46;;;;;;;56.53;2.33;;;;;;;;;;5051070;28;20444;-69
2023/07/25 03:38:14;;;;;;;56.57;2.40;;;;;;;;;;5050998;28;20963;-69
2023/07/25 03:40:41;;;;;;;56.90;3.30;;;;;;;;;;5051233;28;20451;-69
2023/07/25 03:43:09;;;;;;;56.40;2.40;;;;;;;;;;5051193;28;20468;-68
2023/07/25 03:45:36;;;;;;;56.33;2.60;;;;;;;;;;5051235;28;20448;-69
2023/07/25 03:48:03;;;;;;;56.27;2.30;;;;;;;;;;5051581;28;20484;-69
2023/07/25 03:50:30;;;;;;;56.60;2.20;;;;;;;;;;5050675;28;20833;-69
2023/07/25 03:52:58;;;;;;;56.57;2.30;;;;;;;;;;5051112;28;20472;-71
2023/07/25 03:55:25;;;;;;;56.43;2.37;;;;;;;;;;5053991;28;20460;-69
2023/07/25 03:57:53;;;;;;;56.43;2.37;;;;;;;;;;5055233;28;20457;-69
2023/07/25 04:00:21;;;;;;;56.70;2.57;;;;;;;;;;5054714;28;20458;-67
2023/07/25 04:02:48;;;;;;;56.60;2.50;;;;;;;;;;5055036;28;20468;-69
2023/07/25 04:05:15;;;;;;;57.10;2.80;;;;;;;;;;5054903;28;20471;-69
2023/07/25 04:07:43;;;;;;;56.33;2.50;;;;;;;;;;5054985;28;20462;-69
2023/07/25 04:10:10;;;;;;;56.37;2.50;;;;;;;;;;5054753;28;20478;-69
2023/07/25 04:12:37;;;;;;;56.50;2.20;;;;;;;;;;5054833;28;20525;-69
2023/07/25 04:15:04;;;;;;;56.50;2.17;;;;;;;;;;5054679;28;20533;-71
2023/07/25 04:17:33;;;;;;;56.40;2.30;;;;;;;;;;5054543;28;20679;-69
2023/07/25 04:20:00;;;;;;;56.67;2.50;;;;;;;;;;5054678;28;20446;-69
2023/07/25 04:22:27;;;;;;;56.53;2.17;;;;;;;;;;5054449;28;20471;-69
2023/07/25 04:24:54;;;;;;;56.60;2.20;;;;;;;;;;5054813;28;20466;-69
2023/07/25 04:27:21;;;;;;;57.50;3.67;;;;;;;;;;5054628;28;20841;-69
2023/07/25 04:29:48;;;;;;;56.77;2.40;;;;;;;;;;5054533;28;20488;-69
2023/07/25 04:32:15;;;;;;;56.40;2.30;;;;;;;;;;5054034;28;20472;-69
2023/07/25 04:34:44;;;;;;;56.37;2.20;;;;;;;;;;5054601;28;20664;-69
2023/07/25 04:37:11;;;;;;;56.60;2.50;;;;;;;;;;5054595;28;20447;-69
2023/07/25 04:39:38;;;;;;;56.47;2.63;;;;;;;;;;5054451;28;20444;-69
2023/07/25 04:42:05;;;;;;;56.47;2.40;;;;;;;;;;5072361;28;20470;-68
2023/07/25 04:44:32;;;;;;;57.50;2.60;;;;;;;;;;5074133;28;20448;-69
2023/07/25 04:47:00;;;;;;;56.37;2.20;;;;;;;;;;5074299;28;20454;-69
2023/07/25 04:49:27;;;;;;;56.60;2.20;;;;;;;;;;5074151;28;20483;-69
2023/07/25 04:51:55;;;;;;;56.37;2.20;;;;;;;;;;5073968;28;20463;-69
2023/07/25 04:54:22;;;;;;;56.57;2.20;;;;;;;;;;5073963;28;20478;-70
2023/07/25 04:56:49;;;;;;;56.77;2.60;;;;;;;;;;5073972;28;20458;-69
2023/07/25 04:59:16;;;;;;;56.37;2.40;;;;;;;;;;5073953;28;20459;-69
2023/07/25 05:01:43;;;;;;;58.50;3.17;;;;;;;;;;5073745;28;20464;-69
2023/07/25 05:04:11;;;;;;;56.23;2.20;;;;;;;;;;5074170;28;20447;-70
2023/07/25 05:06:38;;;;;;;56.47;2.23;;;;;;;;;;5073314;28;20455;-69
2023/07/25 05:09:06;;;;;;;56.57;2.30;;;;;;;;;;5081758;28;20508;-69
2023/07/25 05:11:33;;;;;;;56.47;2.50;;;;;;;;;;5085142;28;20450;-71
2023/07/25 05:14:00;;;;;;;56.47;2.27;;;;;;;;;;5082669;28;20446;-68
2023/07/25 05:16:27;;;;;;;56.40;2.60;;;;;;;;;;5088034;28;20482;-69
2023/07/25 05:18:54;;;;;;;56.60;2.30;;;;;;;;;;5093877;28;20442;-69
2023/07/25 05:21:21;;;;;;;56.60;2.50;;;;;;;;;;5093645;28;20452;-69
2023/07/25 05:23:49;;;;;;;58.40;3.60;;;;;;;;;;5093795;28;20446;-69
2023/07/25 05:26:17;;;;;;;56.33;2.33;;;;;;;;;;5093404;28;20833;-69
2023/07/25 05:28:44;;;;;;;56.40;2.40;;;;;;;;;;5093736;28;20576;-70
2023/07/25 05:31:11;;;;;;;56.67;2.60;;;;;;;;;;5093782;28;20815;-70
2023/07/25 05:33:39;;;;;;;56.50;2.40;;;;;;;;;;5093612;28;20494;-68
2023/07/25 05:36:06;;;;;;;56.37;2.17;;;;;;;;;;5093328;28;20458;-69
2023/07/25 05:38:33;;;;;;;57.17;2.60;;;;;;;;;;5093462;28;20438;-69
2023/07/25 05:41:00;;;;;;;56.57;2.70;;;;;;;;;;5092899;28;20454;-69
2023/07/25 05:43:28;;;;;;;56.63;2.30;;;;;;;;;;5093466;28;20588;-69
2023/07/25 05:45:56;;;;;;;56.57;2.50;;;;;;;;;;5093443;28;20454;-69
2023/07/25 05:48:23;;;;;;;56.60;2.33;;;;;;;;;;5092861;28;20456;-69
2023/07/25 05:50:51;;;;;;;56.97;2.30;;;;;;;;;;5093239;28;20546;-70
2023/07/25 05:53:19;;;;;;;57.27;2.90;;;;;;;;;;5092883;28;20467;-69
2023/07/25 05:55:46;;;;;;;56.50;2.27;;;;;;;;;;5092841;28;20458;-70
2023/07/25 05:58:14;;;;;;;56.57;2.10;;;;;;;;;;5093024;28;20446;-70
2023/07/25 06:00:43;;;;;;;56.37;2.37;;;;;;;;;;5092415;28;20499;-69
2023/07/25 06:03:12;;;;;;;56.47;2.43;;;;;;;;;;5093330;28;20482;-70
2023/07/25 06:05:39;;;;;;;56.40;2.13;;;;;;;;;;5093243;28;20450;-70
2023/07/25 06:08:06;;;;;;;56.70;2.33;;;;;;;;;;5092045;28;20845;-70
2023/07/25 06:10:33;;;;;;;56.33;2.40;;;;;;;;;;5092279;28;21013;-70
2023/07/25 06:13:03;;;;;;;56.90;2.60;;;;;;;;;;5092719;28;20476;-69
2023/07/25 06:15:30;;;;;;;57.37;2.50;;;;;;;;;;5092613;28;20446;-68
2023/07/25 06:17:58;;;;;;;56.50;2.50;;;;;;;;;;5092311;28;20465;-70
2023/07/25 06:20:25;;;;;;;56.37;2.17;;;;;;;;;;5091996;28;21366;-69
2023/07/25 06:22:53;;;;;;;56.60;2.30;;;;;;;;;;5092535;28;20477;-69
2023/07/25 06:25:20;;;;;;;56.50;2.70;;;;;;;;;;5092463;28;20825;-69
2023/07/25 06:27:47;;;;;;;56.80;3.17;;;;;;;;;;5092228;28;20454;-70
2023/07/25 06:30:14;;;;;;;56.47;2.53;;;;;;;;;;5092038;28;20512;-70
2023/07/25 06:32:41;;;;;;;56.83;3.03;;;;;;;;;;5092222;28;20473;-70
2023/07/25 06:35:10;;;;;;;56.40;2.50;;;;;;;;;;5092073;28;20842;-70
2023/07/25 06:37:37;;;;;;;56.70;2.50;;;;;;;;;;5092275;28;20539;-69
2023/07/25 06:40:05;;;;;;;56.40;2.10;;;;;;;;;;5092070;28;20473;-69
2023/07/25 06:42:32;;;;;;;56.60;2.07;;;;;;;;;;5091818;28;20466;-69
2023/07/25 06:44:59;;;;;;;56.40;2.10;;;;;;;;;;5091871;28;20450;-69
2023/07/25 06:47:26;;;;;;;56.97;2.67;;;;;;;;;;5091910;28;20450;-69
2023/07/25 06:49:53;;;;;;;57.83;2.87;;;;;;;;;;5092115;28;20478;-69
2023/07/25 06:52:22;;;;;;;56.57;2.40;;;;;;;;;;5072252;28;20475;-70
2023/07/25 06:54:49;;;;;;;56.77;3.53;;;;;;;;;;5071615;28;20455;-69
2023/07/25 06:57:16;;;;;;;56.50;2.40;;;;;;;;;;5071444;28;20452;-70
2023/07/25 06:59:43;;;;;;;56.37;2.10;;;;;;;;;;5071451;28;20965;-69
2023/07/25 07:02:10;;;;;;;56.60;2.10;;;;;;;;;;5070984;28;20472;-69
2023/07/25 07:04:37;;;;;;;56.60;2.53;;;;;;;;;;5071581;28;20455;-68
2023/07/25 07:07:06;;;;;;;56.23;2.10;;;;;;;;;;5071453;28;20444;-69
2023/07/25 07:09:35;;;;;;;56.50;2.40;;;;;;;;;;5076014;28;20495;-69
2023/07/25 07:12:02;;;;;;;56.63;2.83;;;;;;;;;;5081475;28;20549;-68
2023/07/25 07:14:29;;;;;;;59.27;3.03;;;;;;;;;;5079684;28;20444;-69
2023/07/25 07:16:56;;;;;;;56.23;2.10;;;;;;;;;;5074816;28;20951;-69
2023/07/25 07:19:23;;;;;;;56.43;2.77;;;;;;;;;;5083086;28;20491;-69
2023/07/25 07:21:50;;;;;;;56.37;2.50;;;;;;;;;;5091547;28;20815;-69
2023/07/25 07:24:17;;;;;;;56.33;2.10;;;;;;;;;;5091594;28;20458;-69
2023/07/25 07:26:46;;;;;;;56.47;2.20;;;;;;;;;;5091308;28;20450;-69
2023/07/25 07:29:13;;;;;;;57.03;3.63;;;;;;;;;;5090248;28;20489;-69
2023/07/25 07:31:40;;;;;;;57.50;2.83;;;;;;;;;;5091374;28;20450;-69
2023/07/25 07:34:10;;;;;;;56.57;2.30;;;;;;;;;;5091387;28;20845;-69
2023/07/25 07:36:37;;;;;;;56.27;2.10;;;;;;;;;;5091401;28;20503;-70
2023/07/25 07:39:04;;;;;;;56.90;2.73;;;;;;;;;;5091438;28;20442;-68
2023/07/25 07:41:32;;;;;;;56.47;2.47;;;;;;;;;;5091066;28;20457;-70
2023/07/25 07:44:00;;;;;;;56.67;2.70;;;;;;;;;;5091668;28;20446;-69
2023/07/25 07:46:27;;;;;;;56.57;2.27;;;;;;;;;;5091503;28;20454;-69
2023/07/25 07:48:55;;;;;;;56.70;2.40;;;;;;;;;;5091324;28;20490;-68
2023/07/25 07:51:22;;;;;;;56.37;2.20;;;;;;;;;;5090956;28;20456;-69
2023/07/25 07:53:49;;;;;;;56.47;2.40;;;;;;;;;;5091212;28;20453;-68
2023/07/25 07:56:16;;;;;;;56.90;2.80;;;;;;;;;;5091225;28;20450;-69
2023/07/25 07:58:43;;;;;;;56.50;2.50;;;;;;;;;;5091437;28;20482;-68
2023/07/25 08:01:16;;;;;;;56.60;2.13;;;;;;;;;;5091089;28;20454;-69
2023/07/25 08:03:44;;;;;;;56.57;2.47;;;;;;;;;;5091007;28;21056;-69
2023/07/25 08:06:11;;;;;;;56.60;2.50;;;;;;;;;;5091318;28;20442;-67
2023/07/25 08:08:38;;;;;;;56.47;2.53;;;;;;;;;;5091371;28;20453;-69
2023/07/25 08:11:05;;;;;;;56.50;2.30;;;;;;;;;;5083614;28;20487;-67
2023/07/25 08:13:33;;;;;;;57.73;3.37;;;;;;;;;;5072217;28;20468;-67
2023/07/25 08:16:00;;;;;;;56.37;2.20;;;;;;;;;;5070152;28;20985;-66
2023/07/25 08:18:28;;;;;;;57.17;2.77;;;;;;;;;;5069382;28;20455;-65
2023/07/25 08:20:57;;;;;;;56.70;2.60;;;;;;;;;;5071456;28;20815;-66
2023/07/25 08:23:24;;;;;;;56.40;2.10;;;;;;;;;;5071091;28;20471;-65
2023/07/25 08:25:51;;;;;;;56.50;2.10;;;;;;;;;;5068848;28;20795;-66
2023/07/25 08:28:19;;;;;;;56.70;2.30;;;;;;;;;;5071809;28;20956;-66
2023/07/25 08:30:46;;;;;;;56.70;2.10;;;;;;;;;;5071740;28;20494;-66
2023/07/25 08:33:15;;;;;;;56.50;2.13;;;;;;;;;;5070692;28;20825;-65
2023/07/25 08:35:43;;;;;;;56.30;2.20;;;;;;;;;;5071235;28;20455;-66
2023/07/25 08:38:10;;;;;;;56.30;2.00;;;;;;;;;;5071321;28;20480;-66
2023/07/25 08:40:37;;;;;;;56.90;3.17;;;;;;;;;;5072029;28;20457;-66
2023/07/25 08:43:10;;;;;;;56.27;2.40;;;;;;;;;;5074375;28;20842;-67
2023/07/25 08:45:37;;;;;;;56.30;2.43;;;;;;;;;;5073939;28;20483;-68
2023/07/25 08:48:05;;;;;;;56.07;1.90;;;;;;;;;;5074091;28;20823;-67
2023/07/25 08:50:32;;;;;;;56.13;2.10;;;;;;;;;;5073457;28;20475;-67
2023/07/25 08:53:02;;;;;;;56.50;2.40;;;;;;;;;;5074045;28;20473;-68
2023/07/25 08:55:29;;;;;;;57.10;2.53;;;;;;;;;;5073674;28;20846;-68
2023/07/25 08:57:57;;;;;;;56.63;2.40;;;;;;;;;;5073883;28;20823;-68
2023/07/25 09:00:25;;;;;;;56.50;2.50;;;;;;;;;;5073402;28;20965;-68
2023/07/25 09:02:52;;;;;;;56.47;2.50;;;;;;;;;;5073661;28;20466;-68
2023/07/25 09:05:20;;;;;;;56.50;2.20;;;;;;;;;;5073524;28;20475;-68
2023/07/25 09:07:47;;;;;;;56.70;2.93;;;;;;;;;;5073194;28;20775;-68
2023/07/25 09:10:15;;;;;;;58.17;3.63;;;;;;;;;;5085100;28;20701;-67
2023/07/25 09:12:42;;;;;;;56.40;2.53;;;;;;;;;;5085123;28;20556;-67
2023/07/25 09:15:10;;;;;;;56.47;2.03;;;;;;;;;;5085716;28;20451;-68
2023/07/25 09:17:37;;;;;;;56.07;2.10;;;;;;;;;;5093513;28;20449;-68
2023/07/25 09:20:04;;;;;;;56.70;1.93;;;;;;;;;;5083797;28;20451;-67
2023/07/25 09:22:33;;;;;;;56.33;2.10;;;;;;;;;;5088766;28;20466;-67
2023/07/25 09:25:01;;;;;;;56.20;2.00;;;;;;;;;;5093750;28;20446;-68
2023/07/25 09:27:30;;;;;;;55.97;2.00;;;;;;;;;;5093564;28;20533;-68
2023/07/25 09:29:57;;;;;;;56.33;2.00;;;;;;;;;;5093503;28;20478;-67
2023/07/25 09:32:25;;;;;;;56.27;1.90;;;;;;;;;;5093365;28;21019;-68
2023/07/25 09:34:56;;;;;;;56.30;2.00;;;;;;;;;;5093961;28;20521;-68
2023/07/25 09:37:23;;;;;;;56.50;1.90;;;;;;;;;;5087011;28;20456;-69
2023/07/25 09:39:51;;;;;;;56.50;2.10;;;;;;;;;;5081073;28;20447;-67
2023/07/25 09:42:18;;;;;;;56.47;1.90;;;;;;;;;;5073866;28;20473;-68
2023/07/25 09:44:51;;;;;;;56.30;2.00;;;;;;;;;;5074003;28;20460;-67
2023/07/25 09:47:22;;;;;;;56.23;1.87;;;;;;;;;;5075409;28;20452;-66
2023/07/25 09:49:49;;;;;;;55.87;1.90;;;;;;;;;;5076008;28;20476;-68
2023/07/25 09:52:16;;;;;;;56.17;1.70;;;;;;;;;;5074964;28;20471;-67
2023/07/25 09:54:43;;;;;;;56.30;1.90;;;;;;;;;;5075306;28;20486;-68
2023/07/25 09:57:11;;;;;;;56.20;1.80;;;;;;;;;;5074174;28;20458;-67
2023/07/25 09:59:38;;;;;;;56.40;2.10;;;;;;;;;;5073448;28;20455;-68
2023/07/25 10:02:07;;;;;;;56.50;1.80;;;;;;;;;;5073973;28;20477;-67
2023/07/25 10:04:37;;;;;;;56.47;1.70;;;;;;;;;;5075104;28;20452;-68
2023/07/25 10:07:04;;;;;;;56.40;2.10;;;;;;;;;;5075825;28;20447;-68
2023/07/25 10:09:31;;;;;;;56.00;1.93;;;;;;;;;;5073832;28;20454;-68
2023/07/25 10:11:58;;;;;;;56.10;1.90;;;;;;;;;;5073961;28;20478;-67
2023/07/25 10:14:25;;;;;;;56.37;2.10;;;;;;;;;;5073164;28;20478;-68
2023/07/25 10:16:53;;;;;;;56.20;1.70;;;;;;;;;;5073057;28;20811;-69
2023/07/25 10:19:21;;;;;;;56.17;1.80;;;;;;;;;;5073990;28;20451;-69
2023/07/25 10:21:49;;;;;;;56.00;1.67;;;;;;;;;;5072858;28;20468;-68
2023/07/25 10:24:17;;;;;;;56.33;1.77;;;;;;;;;;5073274;28;20453;-69
2023/07/25 10:26:54;;;;;;;56.07;1.90;;;;;;;;;;5073101;28;20450;-68
2023/07/25 10:29:37;;;;;;;55.77;1.70;;;;;;;;;;5073675;28;20967;-69
2023/07/25 10:32:04;;;;;;;56.27;1.90;;;;;;;;;;5073027;28;20528;-68
2023/07/25 10:34:45;;;;;;;56.07;1.70;;;;;;;;;;5072973;28;20457;-69
2023/07/25 10:37:20;;;;;;;56.20;1.70;;;;;;;;;;5073690;28;20465;-69
2023/07/25 10:39:47;;;;;;;55.93;1.70;;;;;;;;;;5073347;28;20815;-69
2023/07/25 10:42:16;;;;;;;56.23;1.60;;;;;;;;;;5072713;28;20467;-66
2023/07/25 10:44:43;;;;;;;56.07;1.90;;;;;;;;;;5072870;28;20451;-66
2023/07/25 10:47:25;;;;;;;56.13;1.80;;;;;;;;;;5073051;28;20462;-67
2023/07/25 10:49:56;;;;;;;56.10;1.57;;;;;;;;;;5073099;28;20531;-67
2023/07/25 10:52:38;;;;;;;56.00;1.50;;;;;;;;;;5073690;28;20468;-67
2023/07/25 10:55:05;;;;;;;55.83;1.57;;;;;;;;;;5072374;28;20456;-66
2023/07/25 10:57:33;;;;;;;56.00;2.00;;;;;;;;;;5072708;28;20454;-66
2023/07/25 11:00:01;;;;;;;55.63;1.60;;;;;;;;;;5073139;28;20444;-65
2023/07/25 11:02:32;;;;;;;56.00;1.70;;;;;;;;;;5071758;28;20470;-69
2023/07/25 11:05:17;;;;;;;56.17;2.17;;;;;;;;;;5072038;28;20830;-68
2023/07/25 11:07:51;;;;;;;56.53;2.00;;;;;;;;;;5071007;28;20538;-69
2023/07/25 11:10:20;;;;;;;57.50;2.50;;;;;;;;;;5077887;28;20540;-69
2023/07/25 11:12:50;;;;;;;56.43;1.93;;;;;;;;;;5081750;28;20479;-68
2023/07/25 11:15:17;;;;;;;56.33;2.07;;;;;;;;;;5083182;28;20837;-67
2023/07/25 11:17:44;;;;;;;57.10;2.37;;;;;;;;;;5091509;28;20930;-69
2023/07/25 11:20:11;;;;;;;56.70;2.00;;;;;;;;;;5088970;28;20449;-67
2023/07/25 11:22:39;;;;;;;56.50;2.10;;;;;;;;;;5079900;28;20467;-69
2023/07/25 11:25:08;;;;;;;56.47;1.90;;;;;;;;;;5091363;28;20450;-69
2023/07/25 11:27:36;;;;;;;56.40;1.80;;;;;;;;;;5091569;28;20453;-69
2023/07/25 11:30:13;;;;;;;56.37;1.90;;;;;;;;;;5091178;28;20454;-68
2023/07/25 11:32:40;;;;;;;56.30;1.93;;;;;;;;;;5091605;28;20477;-69
2023/07/25 11:35:07;;;;;;;57.13;2.20;;;;;;;;;;5085096;28;20451;-69
2023/07/25 11:37:35;;;;;;;56.07;1.77;;;;;;;;;;5083221;28;20445;-70
2023/07/25 11:40:14;;;;;;;55.97;1.60;;;;;;;;;;5091330;28;20465;-67
2023/07/25 11:42:44;;;;;;;56.17;1.70;;;;;;;;;;5091291;28;20466;-70
2023/07/25 11:45:12;;;;;;;55.83;1.73;;;;;;;;;;5091581;28;20446;-69
2023/07/25 11:47:40;;;;;;;55.87;1.70;;;;;;;;;;5091099;28;20930;-67
2023/07/25 11:50:08;;;;;;;55.77;1.70;;;;;;;;;;5090252;28;20450;-67
2023/07/25 11:52:36;;;;;;;55.63;1.53;;;;;;;;;;5091301;28;20474;-67
2023/07/25 11:55:03;;;;;;;55.67;1.50;;;;;;;;;;5091191;28;20966;-67
2023/07/25 11:57:32;;;;;;;55.97;1.40;;;;;;;;;;5091370;28;20446;-68
2023/07/25 12:00:00;;;;;;;55.87;1.70;;;;;;;;;;5091346;28;20442;-70
2023/07/25 12:02:27;;;;;;;56.20;1.70;;;;;;;;;;5091466;28;20474;-69
2023/07/25 12:04:54;;;;;;;56.50;2.00;;;;;;;;;;5091609;28;20885;-67
2023/07/25 12:07:21;;;;;;;56.67;1.70;;;;;;;;;;5091547;28;20968;-69
2023/07/25 12:09:52;;;;;;;56.57;1.80;;;;;;;;;;5091635;28;20453;-68
2023/07/25 12:12:19;;;;;;;56.33;1.87;;;;;;;;;;5090872;28;20565;-69
2023/07/25 12:14:56;;;;;;;56.83;2.37;;;;;;;;;;5091675;28;20458;-70
2023/07/25 12:17:23;;;;;;;57.37;2.87;;;;;;;;;;5094372;28;20452;-69
2023/07/25 12:19:53;;;;;;;56.57;2.00;;;;;;;;;;5095553;28;20447;-69
2023/07/25 12:22:20;;;;;;;56.40;1.90;;;;;;;;;;5094965;28;20519;-69
2023/07/25 12:24:48;;;;;;;56.50;2.10;;;;;;;;;;5095087;28;20453;-68
2023/07/25 12:27:18;;;;;;;56.37;2.00;;;;;;;;;;5095134;28;20442;-69
2023/07/25 12:29:45;;;;;;;56.63;2.00;;;;;;;;;;5095209;28;20450;-69
2023/07/25 12:32:14;;;;;;;56.73;2.00;;;;;;;;;;5094772;28;20489;-68
2023/07/25 12:34:41;;;;;;;56.37;1.90;;;;;;;;;;5095186;28;20825;-69
2023/07/25 12:37:08;;;;;;;56.43;2.40;;;;;;;;;;5095247;28;20446;-69
2023/07/25 12:39:36;;;;;;;56.67;2.10;;;;;;;;;;5094938;28;20442;-69
2023/07/25 12:42:03;;;;;;;56.57;2.30;;;;;;;;;;5094275;28;20509;-69
2023/07/25 12:44:30;;;;;;;56.70;2.20;;;;;;;;;;5095269;28;20442;-69
2023/07/25 12:46:57;;;;;;;56.47;2.00;;;;;;;;;;5094606;28;20523;-69
2023/07/25 12:49:27;;;;;;;56.77;2.43;;;;;;;;;;5094729;28;20446;-68
2023/07/25 12:51:54;;;;;;;56.67;2.20;;;;;;;;;;5094477;28;20492;-67
2023/07/25 12:54:21;;;;;;;56.47;2.00;;;;;;;;;;5094587;28;20838;-69
2023/07/25 12:56:48;;;;;;;56.37;1.90;;;;;;;;;;5094463;28;20556;-69
2023/07/25 12:59:15;;;;;;;56.37;2.00;;;;;;;;;;5094274;28;20457;-70
2023/07/25 13:01:43;;;;;;;56.47;1.90;;;;;;;;;;5093708;28;20468;-69
2023/07/25 13:04:10;;;;;;;56.50;2.00;;;;;;;;;;5094159;28;20454;-69
2023/07/25 13:06:38;;;;;;;56.53;1.90;;;;;;;;;;5094102;28;20450;-70
2023/07/25 13:09:05;;;;;;;56.40;1.70;;;;;;;;;;5093989;28;20442;-70
2023/07/25 13:11:32;;;;;;;55.97;1.70;;;;;;;;;;5093615;28;20486;-70
2023/07/25 13:14:00;;;;;;;55.83;1.60;;;;;;;;;;5094054;28;20498;-68
2023/07/25 13:16:27;;;;;;;55.67;1.63;;;;;;;;;;5093709;28;20442;-67
2023/07/25 13:18:54;;;;;;;56.00;1.70;;;;;;;;;;5094224;28;20909;-69
2023/07/25 13:21:21;;;;;;;55.90;1.57;;;;;;;;;;5093668;28;20438;-68
2023/07/25 13:23:49;;;;;;;56.20;1.93;;;;;;;;;;5093609;28;20454;-68
2023/07/25 13:26:16;;;;;;;56.17;1.50;;;;;;;;;;5093840;28;20559;-68
2023/07/25 13:28:43;;;;;;;56.10;1.90;;;;;;;;;;5093698;28;20450;-68
2023/07/25 13:31:10;;;;;;;56.43;1.80;;;;;;;;;;5093185;28;20485;-68
2023/07/25 13:33:37;;;;;;;56.03;1.80;;;;;;;;;;5093596;28;20462;-68
2023/07/25 13:36:05;;;;;;;56.17;2.10;;;;;;;;;;5093344;28;20457;-68
2023/07/25 13:38:32;;;;;;;56.30;2.00;;;;;;;;;;5093500;28;20448;-68
2023/07/25 13:41:00;;;;;;;56.27;1.73;;;;;;;;;;5093235;28;20446;-67
2023/07/25 13:43:27;;;;;;;56.43;1.80;;;;;;;;;;5093500;28;20488;-68
2023/07/25 13:45:54;;;;;;;56.33;1.80;;;;;;;;;;5093187;28;20446;-68
2023/07/25 13:48:21;;;;;;;56.47;1.90;;;;;;;;;;5093172;28;20443;-67
2023/07/25 13:50:48;;;;;;;56.30;1.90;;;;;;;;;;5093160;28;21014;-68
2023/07/25 13:53:16;;;;;;;56.17;2.10;;;;;;;;;;5093359;28;20477;-69
2023/07/25 13:55:43;;;;;;;56.50;2.30;;;;;;;;;;5092847;28;20459;-69
2023/07/25 13:58:11;;;;;;;56.60;2.00;;;;;;;;;;5093123;28;20843;-69
2023/07/25 14:00:38;;;;;;;56.77;2.07;;;;;;;;;;5092953;28;20453;-70
2023/07/25 14:03:06;;;;;;;56.37;2.10;;;;;;;;;;5092898;28;20494;-70
2023/07/25 14:05:33;;;;;;;56.37;2.10;;;;;;;;;;5092876;28;20457;-70
2023/07/25 14:08:00;;;;;;;56.40;1.80;;;;;;;;;;5092952;28;20450;-69
2023/07/25 14:10:27;;;;;;;56.80;1.90;;;;;;;;;;5092539;28;20445;-69
2023/07/25 14:12:54;;;;;;;56.07;1.87;;;;;;;;;;5093087;28;20846;-68
2023/07/25 14:15:23;;;;;;;56.33;1.83;;;;;;;;;;5092505;28;20449;-69
2023/07/25 14:17:50;;;;;;;57.00;2.27;;;;;;;;;;5092741;28;20458;-70
2023/07/25 14:20:17;;;;;;;56.27;1.77;;;;;;;;;;5092487;28;20439;-67
2023/07/25 14:22:44;;;;;;;56.37;1.80;;;;;;;;;;5092530;28;20585;-67
2023/07/25 14:25:11;;;;;;;56.37;1.90;;;;;;;;;;5092558;28;20449;-67
2023/07/25 14:27:38;;;;;;;56.53;1.80;;;;;;;;;;5092402;28;20450;-70
2023/07/25 14:30:06;;;;;;;56.13;1.80;;;;;;;;;;5092137;28;20451;-69
2023/07/25 14:32:35;;;;;;;56.30;1.90;;;;;;;;;;5092349;28;20866;-69
2023/07/25 14:35:03;;;;;;;56.27;1.90;;;;;;;;;;5092328;28;20450;-70